sensor_id;sensor_type;location;lat;lon;timestamp;pressure;altitude;pressure_sealevel;temperature;humidity
49315;BME280;36672;50.710;12.498;2022-07-01T00:01:16;98018.91;;;20.87;81.51
49315;BME280;36672;50.710;12.498;2022-07-01T00:03:41;98020.28;;;20.84;81.56
49315;BME280;36672;50.710;12.498;2022-07-01T00:06:13;98019.72;;;20.82;81.97
49315;BME280;36672;50.710;12.498;2022-07-01T00:08:39;98016.16;;;20.81;82.24
49315;BME280;36672;50.710;12.498;2022-07-01T00:11:04;98010.41;;;20.78;82.27
49315;BME280;36672;50.710;12.498;2022-07-01T00:13:29;98016.72;;;20.73;82.13
49315;BME280;36672;50.710;12.498;2022-07-01T00:15:54;98021.09;;;20.69;82.14
49315;BME280;36672;50.710;12.498;2022-07-01T00:18:19;98021.13;;;20.64;82.37
49315;BME280;36672;50.710;12.498;2022-07-01T00:20:46;98013.19;;;20.57;82.66
49315;BME280;36672;50.710;12.498;2022-07-01T00:23:11;98014.00;;;20.52;82.67
49315;BME280;36672;50.710;12.498;2022-07-01T00:25:38;98017.28;;;20.49;83.16
49315;BME280;36672;50.710;12.498;2022-07-01T00:28:03;98009.34;;;20.48;83.42
49315;BME280;36672;50.710;12.498;2022-07-01T00:30:29;98004.94;;;20.47;83.92
49315;BME280;36672;50.710;12.498;2022-07-01T00:32:55;98006.31;;;20.44;83.81
49315;BME280;36672;50.710;12.498;2022-07-01T00:35:20;98014.56;;;20.44;83.67
49315;BME280;36672;50.710;12.498;2022-07-01T00:37:45;98009.06;;;20.44;84.11
49315;BME280;36672;50.710;12.498;2022-07-01T00:40:11;98014.03;;;20.42;83.96
49315;BME280;36672;50.710;12.498;2022-07-01T00:42:39;98007.16;;;20.40;83.44
49315;BME280;36672;50.710;12.498;2022-07-01T00:45:06;98008.25;;;20.39;84.27
49315;BME280;36672;50.710;12.498;2022-07-01T00:47:32;98003.88;;;20.37;83.83
49315;BME280;36672;50.710;12.498;2022-07-01T00:49:57;98009.09;;;20.34;83.69
49315;BME280;36672;50.710;12.498;2022-07-01T00:52:22;98003.88;;;20.32;83.83
49315;BME280;36672;50.710;12.498;2022-07-01T00:54:48;98006.06;;;20.30;83.73
49315;BME280;36672;50.710;12.498;2022-07-01T00:57:13;98004.44;;;20.29;84.02
49315;BME280;36672;50.710;12.498;2022-07-01T00:59:40;98008.28;;;20.28;84.02
49315;BME280;36672;50.710;12.498;2022-07-01T01:02:06;97997.84;;;20.25;83.83
49315;BME280;36672;50.710;12.498;2022-07-01T01:04:32;97997.56;;;20.21;83.61
49315;BME280;36672;50.710;12.498;2022-07-01T01:06:58;97997.31;;;20.18;83.94
49315;BME280;36672;50.710;12.498;2022-07-01T01:09:24;97994.56;;;20.13;84.11
49315;BME280;36672;50.710;12.498;2022-07-01T01:11:50;97985.81;;;20.11;84.29
49315;BME280;36672;50.710;12.498;2022-07-01T01:14:15;97980.31;;;20.11;84.40
49315;BME280;36672;50.710;12.498;2022-07-01T01:16:40;97984.97;;;20.10;84.65
49315;BME280;36672;50.710;12.498;2022-07-01T01:19:06;97979.47;;;20.10;84.59
49315;BME280;36672;50.710;12.498;2022-07-01T01:21:32;97981.41;;;20.10;84.90
49315;BME280;36672;50.710;12.498;2022-07-01T01:23:57;97980.84;;;20.08;84.32
49315;BME280;36672;50.710;12.498;2022-07-01T01:26:23;97983.34;;;20.04;84.51
49315;BME280;36672;50.710;12.498;2022-07-01T01:28:52;97978.69;;;19.99;84.37
49315;BME280;36672;50.710;12.498;2022-07-01T01:31:17;97974.56;;;19.97;84.93
49315;BME280;36672;50.710;12.498;2022-07-01T01:33:43;97986.91;;;19.94;84.38
49315;BME280;36672;50.710;12.498;2022-07-01T01:36:08;97983.31;;;19.94;84.49
49315;BME280;36672;50.710;12.498;2022-07-01T01:38:34;97990.47;;;19.95;84.67
49315;BME280;36672;50.710;12.498;2022-07-01T01:41:00;97991.00;;;19.97;84.79
49315;BME280;36672;50.710;12.498;2022-07-01T01:43:25;97995.66;;;19.96;84.77
49315;BME280;36672;50.710;12.498;2022-07-01T01:45:50;97995.94;;;19.95;84.67
49315;BME280;36672;50.710;12.498;2022-07-01T01:48:16;98003.88;;;19.96;84.69
49315;BME280;36672;50.710;12.498;2022-07-01T01:50:41;98000.06;;;19.97;84.55
49315;BME280;36672;50.710;12.498;2022-07-01T01:53:06;97997.31;;;19.97;84.77
49315;BME280;36672;50.710;12.498;2022-07-01T01:55:32;98002.25;;;19.95;84.46
49315;BME280;36672;50.710;12.498;2022-07-01T01:57:57;97999.78;;;19.94;84.56
49315;BME280;36672;50.710;12.498;2022-07-01T02:00:22;98002.25;;;19.90;84.98
49315;BME280;36672;50.710;12.498;2022-07-01T02:02:48;98004.44;;;19.88;85.10
49315;BME280;36672;50.710;12.498;2022-07-01T02:05:13;98003.06;;;19.85;84.71
49315;BME280;36672;50.710;12.498;2022-07-01T02:07:39;98006.91;;;19.84;85.05
49315;BME280;36672;50.710;12.498;2022-07-01T02:10:05;98014.00;;;19.80;85.05
49315;BME280;36672;50.710;12.498;2022-07-01T02:12:31;98009.06;;;19.77;85.00
49315;BME280;36672;50.710;12.498;2022-07-01T02:14:57;98004.94;;;19.75;85.47
49315;BME280;36672;50.710;12.498;2022-07-01T02:17:22;98022.50;;;19.74;85.09
49315;BME280;36672;50.710;12.498;2022-07-01T02:19:47;98024.13;;;19.75;85.47
49315;BME280;36672;50.710;12.498;2022-07-01T02:22:12;98040.56;;;19.75;85.54
49315;BME280;36672;50.710;12.498;2022-07-01T02:24:38;98047.16;;;19.74;85.64
49315;BME280;36672;50.710;12.498;2022-07-01T02:27:03;98037.84;;;19.75;86.12
49315;BME280;36672;50.710;12.498;2022-07-01T02:29:28;98049.63;;;19.75;86.02
49315;BME280;36672;50.710;12.498;2022-07-01T02:31:54;98054.84;;;19.71;85.74
49315;BME280;36672;50.710;12.498;2022-07-01T02:34:19;98060.31;;;19.71;86.06
49315;BME280;36672;50.710;12.498;2022-07-01T02:36:44;98064.16;;;19.70;86.44
49315;BME280;36672;50.710;12.498;2022-07-01T02:39:09;98064.69;;;19.67;85.73
49315;BME280;36672;50.710;12.498;2022-07-01T02:41:35;98069.63;;;19.65;86.26
49315;BME280;36672;50.710;12.498;2022-07-01T02:44:20;98062.47;;;19.64;86.57
49315;BME280;36672;50.710;12.498;2022-07-01T02:46:45;98072.63;;;19.64;85.89
49315;BME280;36672;50.710;12.498;2022-07-01T02:49:10;98078.94;;;19.64;86.44
49315;BME280;36672;50.710;12.498;2022-07-01T02:51:35;98067.16;;;19.64;86.17
49315;BME280;36672;50.710;12.498;2022-07-01T02:54:01;98074.28;;;19.65;85.41
49315;BME280;36672;50.710;12.498;2022-07-01T02:56:26;98074.81;;;19.67;85.54
49315;BME280;36672;50.710;12.498;2022-07-01T02:58:51;98079.22;;;19.68;85.24
49315;BME280;36672;50.710;12.498;2022-07-01T03:01:17;98083.31;;;19.70;84.98
49315;BME280;36672;50.710;12.498;2022-07-01T03:03:42;98087.44;;;19.73;84.57
49315;BME280;36672;50.710;12.498;2022-07-01T03:06:07;98093.50;;;19.75;84.18
49315;BME280;36672;50.710;12.498;2022-07-01T03:08:32;98106.94;;;19.82;83.86
49315;BME280;36672;50.710;12.498;2022-07-01T03:10:58;98104.78;;;19.89;83.42
49315;BME280;36672;50.710;12.498;2022-07-01T03:13:23;98105.91;;;19.93;82.29
49315;BME280;36672;50.710;12.498;2022-07-01T03:15:48;98104.25;;;19.97;82.34
49315;BME280;36672;50.710;12.498;2022-07-01T03:18:13;98109.72;;;20.02;81.69
49315;BME280;36672;50.710;12.498;2022-07-01T03:20:38;98108.94;;;20.07;80.67
49315;BME280;36672;50.710;12.498;2022-07-01T03:23:04;98112.25;;;20.14;80.06
49315;BME280;36672;50.710;12.498;2022-07-01T03:25:29;98110.03;;;20.21;79.53
49315;BME280;36672;50.710;12.498;2022-07-01T03:27:54;98111.44;;;20.29;79.47
49315;BME280;36672;50.710;12.498;2022-07-01T03:30:19;98117.16;;;20.38;78.86
49315;BME280;36672;50.710;12.498;2022-07-01T03:32:45;98118.28;;;20.42;79.02
49315;BME280;36672;50.710;12.498;2022-07-01T03:35:10;98121.84;;;20.48;78.91
49315;BME280;36672;50.710;12.498;2022-07-01T03:37:54;98118.28;;;20.52;79.02
49315;BME280;36672;50.710;12.498;2022-07-01T03:40:20;98126.81;;;20.56;79.25
49315;BME280;36672;50.710;12.498;2022-07-01T03:42:45;98121.84;;;20.58;78.90
49315;BME280;36672;50.710;12.498;2022-07-01T03:45:10;98130.06;;;20.58;78.29
49315;BME280;36672;50.710;12.498;2022-07-01T03:47:35;98143.53;;;20.60;76.97
49315;BME280;36672;50.710;12.498;2022-07-01T03:50:00;98153.97;;;20.63;76.51
49315;BME280;36672;50.710;12.498;2022-07-01T03:52:26;98155.91;;;20.67;75.83
49315;BME280;36672;50.710;12.498;2022-07-01T03:54:51;98160.03;;;20.75;75.46
49315;BME280;36672;50.710;12.498;2022-07-01T03:57:16;98176.50;;;20.85;75.33
49315;BME280;36672;50.710;12.498;2022-07-01T03:59:41;98170.72;;;20.92;74.04
49315;BME280;36672;50.710;12.498;2022-07-01T04:02:07;98189.41;;;21.00;74.59
49315;BME280;36672;50.710;12.498;2022-07-01T04:04:33;98191.03;;;21.12;74.86
49315;BME280;36672;50.710;12.498;2022-07-01T04:06:58;98206.94;;;21.20;74.57
49315;BME280;36672;50.710;12.498;2022-07-01T04:09:24;98212.16;;;21.22;72.88
49315;BME280;36672;50.710;12.498;2022-07-01T04:11:50;98215.19;;;21.20;71.48
49315;BME280;36672;50.710;12.498;2022-07-01T04:14:16;98219.31;;;21.17;71.33
49315;BME280;36672;50.710;12.498;2022-07-01T04:16:42;98221.22;;;21.22;71.69
49315;BME280;36672;50.710;12.498;2022-07-01T04:19:10;98222.03;;;21.23;71.70
49315;BME280;36672;50.710;12.498;2022-07-01T04:21:36;98230.56;;;21.21;70.89
49315;BME280;36672;50.710;12.498;2022-07-01T04:24:20;98234.69;;;21.24;71.92
49315;BME280;36672;50.710;12.498;2022-07-01T04:26:47;98243.22;;;21.22;71.57
49315;BME280;36672;50.710;12.498;2022-07-01T04:29:13;98244.31;;;21.21;70.74
49315;BME280;36672;50.710;12.498;2022-07-01T04:31:38;98240.19;;;21.18;69.83
49315;BME280;36672;50.710;12.498;2022-07-01T04:34:04;98247.63;;;21.23;71.00
49315;BME280;36672;50.710;12.498;2022-07-01T04:36:29;98256.38;;;21.30;71.00
49315;BME280;36672;50.710;12.498;2022-07-01T04:38:54;98256.13;;;21.37;70.31
49315;BME280;36672;50.710;12.498;2022-07-01T04:41:20;98251.38;;;21.53;70.33
49315;BME280;36672;50.710;12.498;2022-07-01T04:44:04;98259.09;;;21.72;70.41
49315;BME280;36672;50.710;12.498;2022-07-01T04:46:29;98257.66;;;21.90;71.28
49315;BME280;36672;50.710;12.498;2022-07-01T04:48:54;98260.34;;;22.00;70.08
49315;BME280;36672;50.710;12.498;2022-07-01T04:51:20;98263.34;;;22.09;69.26
49315;BME280;36672;50.710;12.498;2022-07-01T04:53:45;98261.41;;;22.14;68.26
49315;BME280;36672;50.710;12.498;2022-07-01T04:56:11;98249.50;;;22.24;68.15
49315;BME280;36672;50.710;12.498;2022-07-01T04:58:36;98253.03;;;22.35;68.83
49315;BME280;36672;50.710;12.498;2022-07-01T05:01:01;98257.13;;;22.48;68.66
49315;BME280;36672;50.710;12.498;2022-07-01T05:03:26;98267.53;;;22.56;66.40
49315;BME280;36672;50.710;12.498;2022-07-01T05:05:52;98266.09;;;22.69;67.09
49315;BME280;36672;50.710;12.498;2022-07-01T05:08:17;98267.66;;;22.80;67.48
49315;BME280;36672;50.710;12.498;2022-07-01T05:10:42;98268.13;;;22.93;66.81
49315;BME280;36672;50.710;12.498;2022-07-01T05:13:07;98271.69;;;22.93;63.75
49315;BME280;36672;50.710;12.498;2022-07-01T05:15:33;98270.84;;;22.98;63.38
49315;BME280;36672;50.710;12.498;2022-07-01T05:17:58;98272.66;;;23.08;62.27
49315;BME280;36672;50.710;12.498;2022-07-01T05:20:42;98279.00;;;23.08;61.79
49315;BME280;36672;50.710;12.498;2022-07-01T05:23:26;98284.06;;;22.96;61.97
49315;BME280;36672;50.710;12.498;2022-07-01T05:25:51;98278.31;;;22.92;62.04
49315;BME280;36672;50.710;12.498;2022-07-01T05:28:16;98277.81;;;22.85;61.44
49315;BME280;36672;50.710;12.498;2022-07-01T05:30:42;98274.81;;;22.82;60.82
49315;BME280;36672;50.710;12.498;2022-07-01T05:33:07;98270.16;;;22.77;61.79
49315;BME280;36672;50.710;12.498;2022-07-01T05:35:32;98276.00;;;22.70;61.60
49315;BME280;36672;50.710;12.498;2022-07-01T05:37:57;98286.50;;;22.63;62.35
49315;BME280;36672;50.710;12.498;2022-07-01T05:40:24;98287.88;;;22.60;62.72
49315;BME280;36672;50.710;12.498;2022-07-01T05:42:49;98282.97;;;22.57;62.95
49315;BME280;36672;50.710;12.498;2022-07-01T05:45:14;98297.00;;;22.56;63.29
49315;BME280;36672;50.710;12.498;2022-07-01T05:47:39;98291.28;;;22.42;63.25
49315;BME280;36672;50.710;12.498;2022-07-01T05:50:05;98295.44;;;22.39;64.17
49315;BME280;36672;50.710;12.498;2022-07-01T05:52:30;98312.19;;;22.48;64.51
49315;BME280;36672;50.710;12.498;2022-07-01T05:54:55;98318.56;;;22.43;63.48
49315;BME280;36672;50.710;12.498;2022-07-01T05:57:21;98324.31;;;22.42;62.90
49315;BME280;36672;50.710;12.498;2022-07-01T05:59:46;98324.25;;;22.57;61.38
49315;BME280;36672;50.710;12.498;2022-07-01T06:02:11;98326.94;;;22.73;62.54
49315;BME280;36672;50.710;12.498;2022-07-01T06:04:36;98337.03;;;22.88;62.84
49315;BME280;36672;50.710;12.498;2022-07-01T06:07:01;98332.56;;;22.97;61.24
49315;BME280;36672;50.710;12.498;2022-07-01T06:09:27;98332.28;;;22.93;61.21
49315;BME280;36672;50.710;12.498;2022-07-01T06:11:52;98331.00;;;22.80;61.72
49315;BME280;36672;50.710;12.498;2022-07-01T06:14:17;98341.50;;;22.73;62.32
49315;BME280;36672;50.710;12.498;2022-07-01T06:16:43;98337.16;;;22.62;62.64
49315;BME280;36672;50.710;12.498;2022-07-01T06:19:08;98344.59;;;22.61;63.56
49315;BME280;36672;50.710;12.498;2022-07-01T06:21:33;98346.84;;;22.54;62.62
49315;BME280;36672;50.710;12.498;2022-07-01T06:23:58;98339.69;;;22.53;62.99
49315;BME280;36672;50.710;12.498;2022-07-01T06:26:24;98338.59;;;22.54;63.41
49315;BME280;36672;50.710;12.498;2022-07-01T06:28:49;98349.63;;;22.49;63.33
49315;BME280;36672;50.710;12.498;2022-07-01T06:31:14;98342.78;;;22.41;64.01
49315;BME280;36672;50.710;12.498;2022-07-01T06:33:39;98345.53;;;22.36;62.85
49315;BME280;36672;50.710;12.498;2022-07-01T06:36:05;98348.28;;;22.31;64.01
49315;BME280;36672;50.710;12.498;2022-07-01T06:38:30;98355.22;;;22.23;64.15
49315;BME280;36672;50.710;12.498;2022-07-01T06:40:56;98356.59;;;22.15;63.32
49315;BME280;36672;50.710;12.498;2022-07-01T06:43:40;98354.97;;;22.09;64.27
49315;BME280;36672;50.710;12.498;2022-07-01T06:46:05;98359.09;;;22.07;64.51
49315;BME280;36672;50.710;12.498;2022-07-01T06:48:30;98373.09;;;22.10;64.45
49315;BME280;36672;50.710;12.498;2022-07-01T06:50:56;98359.91;;;22.12;64.72
49315;BME280;36672;50.710;12.498;2022-07-01T06:53:21;98364.31;;;22.08;63.70
49315;BME280;36672;50.710;12.498;2022-07-01T06:55:46;98360.22;;;22.06;63.50
49315;BME280;36672;50.710;12.498;2022-07-01T06:58:11;98355.00;;;22.04;63.71
49315;BME280;36672;50.710;12.498;2022-07-01T07:00:37;98361.88;;;22.07;63.26
49315;BME280;36672;50.710;12.498;2022-07-01T07:03:02;98371.22;;;22.06;63.93
49315;BME280;36672;50.710;12.498;2022-07-01T07:05:28;98370.63;;;22.09;63.13
49315;BME280;36672;50.710;12.498;2022-07-01T07:07:56;98366.25;;;22.13;63.56
49315;BME280;36672;50.710;12.498;2022-07-01T07:10:21;98364.28;;;22.19;63.56
49315;BME280;36672;50.710;12.498;2022-07-01T07:12:46;98382.19;;;22.16;62.57
49315;BME280;36672;50.710;12.498;2022-07-01T07:15:11;98383.59;;;22.03;62.45
49315;BME280;36672;50.710;12.498;2022-07-01T07:17:37;98388.84;;;21.94;63.07
49315;BME280;36672;50.710;12.498;2022-07-01T07:20:02;98396.00;;;21.95;63.73
49315;BME280;36672;50.710;12.498;2022-07-01T07:22:27;98395.16;;;21.95;63.45
49315;BME280;36672;50.710;12.498;2022-07-01T07:24:52;98389.63;;;22.00;63.64
49315;BME280;36672;50.710;12.498;2022-07-01T07:27:18;98389.09;;;22.03;63.51
49315;BME280;36672;50.710;12.498;2022-07-01T07:29:44;98394.88;;;22.12;63.57
49315;BME280;36672;50.710;12.498;2022-07-01T07:32:09;98395.13;;;22.21;63.46
49315;BME280;36672;50.710;12.498;2022-07-01T07:34:35;98397.56;;;22.32;63.16
49315;BME280;36672;50.710;12.498;2022-07-01T07:37:00;98394.50;;;22.34;62.48
49315;BME280;36672;50.710;12.498;2022-07-01T07:39:25;98403.88;;;22.33;60.43
49315;BME280;36672;50.710;12.498;2022-07-01T07:41:51;98411.03;;;22.29;61.61
49315;BME280;36672;50.710;12.498;2022-07-01T07:44:16;98419.59;;;22.27;61.41
49315;BME280;36672;50.710;12.498;2022-07-01T07:46:41;98421.28;;;22.13;60.91
49315;BME280;36672;50.710;12.498;2022-07-01T07:49:06;98421.81;;;22.10;61.43
49315;BME280;36672;50.710;12.498;2022-07-01T07:51:31;98411.09;;;22.03;61.11
49315;BME280;36672;50.710;12.498;2022-07-01T07:53:57;98408.88;;;22.05;61.29
49315;BME280;36672;50.710;12.498;2022-07-01T07:56:22;98416.28;;;22.20;60.82
49315;BME280;36672;50.710;12.498;2022-07-01T07:58:47;98416.88;;;22.17;59.35
49315;BME280;36672;50.710;12.498;2022-07-01T08:01:12;98417.97;;;22.06;61.26
49315;BME280;36672;50.710;12.498;2022-07-01T08:03:38;98432.84;;;21.89;60.06
49315;BME280;36672;50.710;12.498;2022-07-01T08:06:03;98440.84;;;21.70;61.43
49315;BME280;36672;50.710;12.498;2022-07-01T08:08:28;98433.97;;;21.62;64.43
49315;BME280;36672;50.710;12.498;2022-07-01T08:10:54;98444.09;;;21.46;64.34
49315;BME280;36672;50.710;12.498;2022-07-01T08:13:19;98444.88;;;21.31;64.16
49315;BME280;36672;50.710;12.498;2022-07-01T08:15:44;98439.38;;;21.16;63.49
49315;BME280;36672;50.710;12.498;2022-07-01T08:18:10;98448.69;;;21.05;63.76
49315;BME280;36672;50.710;12.498;2022-07-01T08:20:35;98444.00;;;21.00;64.18
49315;BME280;36672;50.710;12.498;2022-07-01T08:23:00;98437.13;;;20.97;63.49
49315;BME280;36672;50.710;12.498;2022-07-01T08:25:25;98445.91;;;20.99;63.79
49315;BME280;36672;50.710;12.498;2022-07-01T08:27:51;98457.97;;;20.93;63.35
49315;BME280;36672;50.710;12.498;2022-07-01T08:30:16;98479.66;;;20.90;64.61
49315;BME280;36672;50.710;12.498;2022-07-01T08:32:41;98477.69;;;20.80;63.63
49315;BME280;36672;50.710;12.498;2022-07-01T08:35:06;98484.47;;;20.67;64.30
49315;BME280;36672;50.710;12.498;2022-07-01T08:37:32;98493.50;;;20.57;64.03
49315;BME280;36672;50.710;12.498;2022-07-01T08:39:57;98502.66;;;20.35;64.01
49315;BME280;36672;50.710;12.498;2022-07-01T08:42:24;98513.25;;;20.16;64.73
49315;BME280;36672;50.710;12.498;2022-07-01T08:44:49;98531.25;;;20.02;65.73
49315;BME280;36672;50.710;12.498;2022-07-01T08:47:14;98536.44;;;19.71;67.95
49315;BME280;36672;50.710;12.498;2022-07-01T08:49:40;98517.66;;;19.58;69.92
49315;BME280;36672;50.710;12.498;2022-07-01T08:52:06;98499.91;;;19.38;71.21
49315;BME280;36672;50.710;12.498;2022-07-01T08:54:34;98497.84;;;19.23;73.50
49315;BME280;36672;50.710;12.498;2022-07-01T08:56:59;98500.38;;;19.07;75.14
49315;BME280;36672;50.710;12.498;2022-07-01T08:59:25;98508.47;;;18.97;76.53
49315;BME280;36672;50.710;12.498;2022-07-01T09:01:54;98522.88;;;18.87;79.07
49315;BME280;36672;50.710;12.498;2022-07-01T09:04:20;98506.41;;;18.65;81.94
49315;BME280;36672;50.710;12.498;2022-07-01T09:06:45;98511.03;;;18.42;82.15
49315;BME280;36672;50.710;12.498;2022-07-01T09:09:15;98526.47;;;18.32;82.89
49315;BME280;36672;50.710;12.498;2022-07-01T09:11:45;98523.31;;;18.23;83.37
49315;BME280;36672;50.710;12.498;2022-07-01T09:14:11;98535.59;;;18.20;83.69
49315;BME280;36672;50.710;12.498;2022-07-01T09:16:40;98532.53;;;18.17;83.60
49315;BME280;36672;50.710;12.498;2022-07-01T09:19:06;98533.00;;;18.14;84.31
49315;BME280;36672;50.710;12.498;2022-07-01T09:21:32;98533.84;;;18.14;84.16
49315;BME280;36672;50.710;12.498;2022-07-01T09:24:05;98548.25;;;18.09;83.97
49315;BME280;36672;50.710;12.498;2022-07-01T09:26:31;98531.25;;;18.07;83.79
49315;BME280;36672;50.710;12.498;2022-07-01T09:28:57;98542.28;;;17.96;83.14
49315;BME280;36672;50.710;12.498;2022-07-01T09:31:22;98542.69;;;17.87;83.81
49315;BME280;36672;50.710;12.498;2022-07-01T09:34:04;98543.50;;;17.88;84.76
49315;BME280;36672;50.710;12.498;2022-07-01T09:36:30;98558.31;;;17.92;85.02
49315;BME280;36672;50.710;12.498;2022-07-01T09:38:55;98544.47;;;17.82;83.44
49315;BME280;36672;50.710;12.498;2022-07-01T09:41:22;98554.25;;;17.77;83.83
49315;BME280;36672;50.710;12.498;2022-07-01T09:43:48;98559.38;;;17.74;83.86
49315;BME280;36672;50.710;12.498;2022-07-01T09:46:13;98560.19;;;17.74;83.95
49315;BME280;36672;50.710;12.498;2022-07-01T09:51:05;98560.34;;;17.68;82.67
49315;BME280;36672;50.710;12.498;2022-07-01T09:53:32;98563.69;;;17.70;83.14
49315;BME280;36672;50.710;12.498;2022-07-01T09:55:58;98572.31;;;17.79;83.78
49315;BME280;36672;50.710;12.498;2022-07-01T09:58:23;98572.50;;;17.89;84.20
49315;BME280;36672;50.710;12.498;2022-07-01T10:00:49;98574.16;;;17.90;83.81
49315;BME280;36672;50.710;12.498;2022-07-01T10:03:16;98573.16;;;17.96;83.77
49315;BME280;36672;50.710;12.498;2022-07-01T10:05:45;98566.50;;;18.04;83.56
49315;BME280;36672;50.710;12.498;2022-07-01T10:10:51;98582.56;;;18.00;82.33
49315;BME280;36672;50.710;12.498;2022-07-01T10:13:23;98587.69;;;17.97;81.87
49315;BME280;36672;50.710;12.498;2022-07-01T10:15:50;98590.31;;;17.91;81.83
49315;BME280;36672;50.710;12.498;2022-07-01T10:18:22;98591.03;;;17.87;81.91
49315;BME280;36672;50.710;12.498;2022-07-01T10:20:48;98593.19;;;17.85;82.01
49315;BME280;36672;50.710;12.498;2022-07-01T10:23:14;98596.91;;;17.79;81.84
49315;BME280;36672;50.710;12.498;2022-07-01T10:25:40;98596.81;;;17.73;81.91
49315;BME280;36672;50.710;12.498;2022-07-01T10:28:26;98601.44;;;17.73;82.55
49315;BME280;36672;50.710;12.498;2022-07-01T10:30:52;98605.56;;;17.75;82.73
49315;BME280;36672;50.710;12.498;2022-07-01T10:33:32;98614.66;;;17.64;81.88
49315;BME280;36672;50.710;12.498;2022-07-01T10:36:07;98611.56;;;17.60;82.37
49315;BME280;36672;50.710;12.498;2022-07-01T10:38:32;98605.78;;;17.57;82.59
49315;BME280;36672;50.710;12.498;2022-07-01T10:40:58;98610.06;;;17.53;83.02
49315;BME280;36672;50.710;12.498;2022-07-01T10:43:35;98610.22;;;17.46;82.28
49315;BME280;36672;50.710;12.498;2022-07-01T10:46:00;98614.59;;;17.47;83.57
49315;BME280;36672;50.710;12.498;2022-07-01T10:48:26;98623.63;;;17.48;83.28
49315;BME280;36672;50.710;12.498;2022-07-01T10:50:52;98614.50;;;17.42;82.87
49315;BME280;36672;50.710;12.498;2022-07-01T10:53:17;98615.81;;;17.39;82.81
49315;BME280;36672;50.710;12.498;2022-07-01T10:55:47;98608.09;;;17.36;82.35
49315;BME280;36672;50.710;12.498;2022-07-01T10:58:13;98612.75;;;17.24;81.78
49315;BME280;36672;50.710;12.498;2022-07-01T11:00:42;98609.09;;;17.18;81.80
49315;BME280;36672;50.710;12.498;2022-07-01T11:03:09;98607.69;;;17.16;82.16
49315;BME280;36672;50.710;12.498;2022-07-01T11:05:34;98610.16;;;17.17;82.20
49315;BME280;36672;50.710;12.498;2022-07-01T11:08:01;98599.84;;;17.19;81.92
49315;BME280;36672;50.710;12.498;2022-07-01T11:10:26;98602.31;;;17.21;82.04
49315;BME280;36672;50.710;12.498;2022-07-01T11:12:52;98601.25;;;17.22;81.87
49315;BME280;36672;50.710;12.498;2022-07-01T11:15:17;98607.44;;;17.29;82.88
49315;BME280;36672;50.710;12.498;2022-07-01T11:17:49;98599.34;;;17.34;82.59
49315;BME280;36672;50.710;12.498;2022-07-01T11:20:14;98600.75;;;17.37;82.47
49315;BME280;36672;50.710;12.498;2022-07-01T11:22:40;98603.94;;;17.46;83.02
49315;BME280;36672;50.710;12.498;2022-07-01T11:25:09;98603.28;;;17.55;83.51
49315;BME280;36672;50.710;12.498;2022-07-01T11:27:35;98601.75;;;17.59;82.45
49315;BME280;36672;50.710;12.498;2022-07-01T11:30:03;98602.91;;;17.64;82.05
49315;BME280;36672;50.710;12.498;2022-07-01T11:32:34;98609.88;;;17.71;81.97
49315;BME280;36672;50.710;12.498;2022-07-01T11:34:59;98611.44;;;17.67;81.35
49315;BME280;36672;50.710;12.498;2022-07-01T11:37:29;98618.72;;;17.61;80.18
49315;BME280;36672;50.710;12.498;2022-07-01T11:40:14;98623.59;;;17.59;80.68
49315;BME280;36672;50.710;12.498;2022-07-01T11:42:40;98634.03;;;17.63;81.20
49315;BME280;36672;50.710;12.498;2022-07-01T11:45:06;98618.34;;;17.70;81.60
49315;BME280;36672;50.710;12.498;2022-07-01T11:47:31;98615.94;;;17.73;80.77
49315;BME280;36672;50.710;12.498;2022-07-01T11:49:57;98621.41;;;17.73;79.72
49315;BME280;36672;50.710;12.498;2022-07-01T11:52:23;98630.69;;;17.72;79.47
49315;BME280;36672;50.710;12.498;2022-07-01T11:54:55;98638.78;;;17.67;79.14
49315;BME280;36672;50.710;12.498;2022-07-01T11:57:23;98640.72;;;17.55;79.00
49315;BME280;36672;50.710;12.498;2022-07-01T11:59:49;98632.16;;;17.51;79.31
49315;BME280;36672;50.710;12.498;2022-07-01T12:02:16;98630.84;;;17.54;79.79
49315;BME280;36672;50.710;12.498;2022-07-01T12:04:42;98625.63;;;17.52;79.74
49315;BME280;36672;50.710;12.498;2022-07-01T12:07:07;98627.19;;;17.48;79.12
49315;BME280;36672;50.710;12.498;2022-07-01T12:09:33;98621.50;;;17.38;78.44
49315;BME280;36672;50.710;12.498;2022-07-01T12:11:58;98627.97;;;17.32;78.89
49315;BME280;36672;50.710;12.498;2022-07-01T12:14:25;98642.47;;;17.20;79.14
49315;BME280;36672;50.710;12.498;2022-07-01T12:16:51;98645.66;;;17.17;79.23
49315;BME280;36672;50.710;12.498;2022-07-01T12:19:16;98632.84;;;17.18;78.93
49315;BME280;36672;50.710;12.498;2022-07-01T12:21:48;98632.47;;;17.26;79.69
49315;BME280;36672;50.710;12.498;2022-07-01T12:24:15;98630.09;;;17.30;79.74
49315;BME280;36672;50.710;12.498;2022-07-01T12:26:47;98637.19;;;17.42;80.16
49315;BME280;36672;50.710;12.498;2022-07-01T12:29:13;98640.16;;;17.41;78.56
49315;BME280;36672;50.710;12.498;2022-07-01T12:31:42;98640.97;;;17.41;79.18
49315;BME280;36672;50.710;12.498;2022-07-01T12:34:07;98652.84;;;17.35;78.74
49315;BME280;36672;50.710;12.498;2022-07-01T12:36:32;98664.03;;;17.34;79.61
49315;BME280;36672;50.710;12.498;2022-07-01T12:39:04;98658.31;;;17.35;80.11
49315;BME280;36672;50.710;12.498;2022-07-01T12:41:31;98664.13;;;17.39;80.29
49315;BME280;36672;50.710;12.498;2022-07-01T12:43:58;98669.13;;;17.42;79.45
49315;BME280;36672;50.710;12.498;2022-07-01T12:46:27;98678.84;;;17.38;78.64
49315;BME280;36672;50.710;12.498;2022-07-01T12:48:53;98680.53;;;17.39;79.80
49315;BME280;36672;50.710;12.498;2022-07-01T12:51:18;98686.34;;;17.42;79.71